Terminal Aerodrome Forecast
Issued by NWS

Home | Current Version | Previous Version | Text Only | Print | Product List | Glossary On
Versions: 1 2 3 4 5 6 7 8 9 10 11 12
000
FTUS45 KABQ 201700 RRA
TAFTCC
TAF
KTCC 201752Z 2018/2118 22014G23KT P6SM SCT060
     FM202200 21017G28KT P6SM VCSH SCT060 BKN100
     FM210200 20015KT P6SM SCT120=

USA.gov is the U.S. government's official web portal to all federal, state and local government web resources and services.